createdAt,value
2022-08-25T00:00:49.657Z,22.92
2022-08-25T00:03:17.098Z,22.91
2022-08-25T00:05:43.679Z,22.97
2022-08-25T00:08:10.229Z,23.00
2022-08-25T00:10:38.811Z,22.98
2022-08-25T00:13:06.829Z,22.87
2022-08-25T00:15:33.937Z,22.82
2022-08-25T00:18:01.246Z,22.75
2022-08-25T00:20:29.391Z,22.73
2022-08-25T00:22:56.221Z,22.73
2022-08-25T00:25:23.673Z,22.68
2022-08-25T00:27:51.482Z,22.70
2022-08-25T00:30:18.497Z,22.74
2022-08-25T00:32:51.484Z,22.72
2022-08-25T00:35:25.342Z,22.68
2022-08-25T00:37:51.815Z,22.65
2022-08-25T00:40:18.551Z,22.69
2022-08-25T00:42:45.348Z,22.66
2022-08-25T00:45:11.927Z,22.68
2022-08-25T00:47:38.490Z,22.72
2022-08-25T00:50:07.358Z,22.65
2022-08-25T00:52:43.691Z,22.59
2022-08-25T00:55:42.184Z,22.66
2022-08-25T00:58:16.426Z,22.64
2022-08-25T01:00:47.223Z,22.67
2022-08-25T01:03:13.808Z,22.64
2022-08-25T01:05:43.157Z,22.63
2022-08-25T01:08:10.666Z,22.63
2022-08-25T01:10:41.351Z,22.62
2022-08-25T01:13:25.531Z,22.60
2022-08-25T01:15:55.849Z,22.64
2022-08-25T01:18:23.371Z,22.61
2022-08-25T01:20:54.345Z,22.63
2022-08-25T01:23:22.759Z,22.60
2022-08-25T01:25:59.480Z,22.54
2022-08-25T01:28:26.072Z,22.52
2022-08-25T01:30:52.936Z,22.51
2022-08-25T01:33:20.395Z,22.50
2022-08-25T01:35:47.712Z,22.51
2022-08-25T01:38:15.234Z,22.48
2022-08-25T01:40:45.547Z,22.47
2022-08-25T01:43:15.074Z,22.50
2022-08-25T01:45:46.486Z,22.47
2022-08-25T01:48:14.201Z,22.39
2022-08-25T01:50:42.212Z,22.40
2022-08-25T01:53:32.352Z,22.39
2022-08-25T01:56:02.824Z,22.31
2022-08-25T01:58:35.945Z,22.37
2022-08-25T02:01:06.167Z,22.37
2022-08-25T02:03:32.807Z,22.40
2022-08-25T02:06:01.260Z,22.37
2022-08-25T02:08:30.846Z,22.22
2022-08-25T02:10:57.465Z,22.24
2022-08-25T02:13:26.867Z,22.22
2022-08-25T02:16:00.765Z,22.22
2022-08-25T02:18:27.307Z,22.26
2022-08-25T02:20:54.204Z,22.39
2022-08-25T02:23:21.064Z,22.45
2022-08-25T02:25:47.585Z,22.54
2022-08-25T02:28:14.149Z,22.53
2022-08-25T02:30:42.727Z,22.57
2022-08-25T02:33:10.066Z,22.69
2022-08-25T02:35:37.321Z,22.75
2022-08-25T02:38:04.871Z,22.81
2022-08-25T02:40:31.637Z,22.86
2022-08-25T02:42:58.236Z,22.89
2022-08-25T02:45:24.742Z,22.93
2022-08-25T02:47:51.596Z,22.96
2022-08-25T02:50:18.267Z,22.99
2022-08-25T02:52:44.870Z,22.97
2022-08-25T02:55:14.264Z,22.97
2022-08-25T02:57:42.238Z,22.99
2022-08-25T03:00:11.310Z,23.02
2022-08-25T03:02:41.380Z,23.02
2022-08-25T03:05:09.678Z,23.06
2022-08-25T03:07:38.390Z,23.04
2022-08-25T03:10:09.537Z,23.06
2022-08-25T03:12:36.701Z,23.10
2022-08-25T03:15:04.347Z,23.08
2022-08-25T03:17:36.730Z,23.09
2022-08-25T03:20:05.853Z,23.09
2022-08-25T03:22:33.184Z,23.10
2022-08-25T03:25:23.481Z,23.08
2022-08-25T03:27:51.623Z,23.06
2022-08-25T03:30:18.776Z,23.05
2022-08-25T03:32:45.381Z,23.06
2022-08-25T03:35:12.036Z,23.06
2022-08-25T03:37:38.952Z,23.05
2022-08-25T03:40:09.115Z,23.03
2022-08-25T03:42:45.159Z,23.01
2022-08-25T03:45:14.480Z,23.01
2022-08-25T03:47:41.060Z,22.98
2022-08-25T03:50:10.823Z,22.95
2022-08-25T03:52:41.821Z,22.95
2022-08-25T03:55:11.712Z,22.93
2022-08-25T03:57:38.351Z,22.95
2022-08-25T04:00:09.812Z,22.92
2022-08-25T04:02:36.378Z,22.89
2022-08-25T04:05:03.038Z,22.86
2022-08-25T04:07:30.396Z,22.86
2022-08-25T04:09:56.916Z,22.85
2022-08-25T04:12:24.465Z,22.82
2022-08-25T04:14:51.623Z,22.77
2022-08-25T04:17:18.214Z,22.74
2022-08-25T04:19:45.218Z,22.71
2022-08-25T04:22:11.953Z,22.69
2022-08-25T04:24:39.922Z,22.68
2022-08-25T04:27:06.443Z,22.64
2022-08-25T04:29:33.583Z,22.62
2022-08-25T04:32:00.216Z,22.62
2022-08-25T04:34:28.928Z,22.60
2022-08-25T04:36:56.608Z,22.49
2022-08-25T04:39:23.553Z,22.46
2022-08-25T04:41:50.951Z,22.35
2022-08-25T04:44:18.238Z,22.26
2022-08-25T04:46:44.893Z,22.15
2022-08-25T04:49:11.445Z,22.14
2022-08-25T04:51:40.673Z,22.08
2022-08-25T04:54:11.653Z,21.96
2022-08-25T04:56:41.065Z,21.85
2022-08-25T04:59:10.701Z,21.76
2022-08-25T05:01:37.765Z,21.77
2022-08-25T05:04:07.296Z,21.74
2022-08-25T05:06:34.520Z,21.68
2022-08-25T05:09:01.677Z,21.62
2022-08-25T05:11:29.058Z,21.61
2022-08-25T05:13:56.973Z,21.66
2022-08-25T05:16:25.801Z,21.72
2022-08-25T05:18:53.721Z,21.77
2022-08-25T05:21:24.133Z,21.81
2022-08-25T05:23:54.718Z,21.86
2022-08-25T05:26:22.182Z,21.95
2022-08-25T05:28:50.935Z,22.03
2022-08-25T05:31:18.943Z,22.11
2022-08-25T05:33:46.078Z,22.16
2022-08-25T05:36:13.491Z,22.23
2022-08-25T05:38:41.745Z,22.25
2022-08-25T05:41:12.955Z,22.30
2022-08-25T05:43:41.127Z,22.35
2022-08-25T05:46:08.410Z,22.39
2022-08-25T05:48:35.618Z,22.45
2022-08-25T05:51:03.918Z,22.47
2022-08-25T05:53:31.094Z,22.47
2022-08-25T05:56:01.058Z,22.48
2022-08-25T05:58:29.510Z,22.48
2022-08-25T06:00:58.445Z,22.48
2022-08-25T06:03:25.031Z,22.45
2022-08-25T06:05:51.578Z,22.49
2022-08-25T06:08:19.500Z,22.48
2022-08-25T06:10:45.978Z,22.47
2022-08-25T06:13:12.485Z,22.50
2022-08-25T06:15:39.015Z,22.53
2022-08-25T06:18:05.704Z,22.57
2022-08-25T06:20:32.516Z,22.63
2022-08-25T06:22:59.551Z,22.67
2022-08-25T06:25:27.063Z,22.73
2022-08-25T06:27:54.780Z,22.78
2022-08-25T06:30:24.513Z,22.87
2022-08-25T06:32:55.724Z,22.98
2022-08-25T06:35:22.851Z,23.13
2022-08-25T06:37:49.374Z,23.26
2022-08-25T06:40:16.517Z,23.35
2022-08-25T06:42:43.401Z,23.43
2022-08-25T06:45:10.301Z,23.51
2022-08-25T06:47:37.645Z,23.59
2022-08-25T06:50:05.002Z,23.66
2022-08-25T06:52:31.831Z,23.74
2022-08-25T06:54:58.572Z,23.81
2022-08-25T06:57:25.369Z,23.80
2022-08-25T06:59:53.659Z,23.86
2022-08-25T07:02:22.214Z,23.92
2022-08-25T07:04:49.498Z,23.99
2022-08-25T07:07:15.993Z,23.98
2022-08-25T07:09:43.037Z,23.99
2022-08-25T07:12:09.841Z,24.07
2022-08-25T07:14:36.974Z,24.11
2022-08-25T07:17:10.565Z,24.17
2022-08-25T07:19:39.180Z,24.23
2022-08-25T07:22:07.711Z,24.27
2022-08-25T07:24:35.910Z,24.26
2022-08-25T07:27:02.564Z,24.28
2022-08-25T07:29:32.565Z,24.35
2022-08-25T07:32:03.704Z,24.41
2022-08-25T07:34:52.300Z,24.41
2022-08-25T07:37:38.323Z,24.49
2022-08-25T07:40:08.061Z,24.58
2022-08-25T07:42:35.967Z,24.68
2022-08-25T07:45:05.492Z,24.80
2022-08-25T07:47:33.978Z,24.84
2022-08-25T07:50:00.754Z,24.94
2022-08-25T07:52:28.181Z,25.07
2022-08-25T07:54:55.467Z,25.17
2022-08-25T07:57:23.955Z,25.29
2022-08-25T07:59:50.615Z,25.45
2022-08-25T08:02:19.498Z,25.58
2022-08-25T08:04:51.882Z,25.68
2022-08-25T08:07:25.844Z,25.72
2022-08-25T08:12:56.914Z,25.97
2022-08-25T08:15:23.522Z,26.07
2022-08-25T08:17:50.017Z,26.20
2022-08-25T08:20:17.699Z,26.31
2022-08-25T08:22:49.940Z,26.42
2022-08-25T08:25:18.727Z,26.50
2022-08-25T08:27:48.809Z,26.61
2022-08-25T08:30:15.305Z,26.71
2022-08-25T08:33:08.220Z,26.81
2022-08-25T08:35:28.695Z,26.82
2022-08-25T08:37:55.233Z,26.94
2022-08-25T08:40:22.201Z,27.09
2022-08-25T08:42:58.645Z,27.24
2022-08-25T08:45:51.960Z,27.38
2022-08-25T08:48:43.094Z,27.53
2022-08-25T08:51:32.677Z,27.67
2022-08-25T08:54:16.622Z,27.73
2022-08-25T08:56:48.205Z,27.85
2022-08-25T08:59:21.675Z,27.89
2022-08-25T09:02:37.886Z,28.02
2022-08-25T09:05:11.627Z,28.16
2022-08-25T09:07:48.350Z,28.27
2022-08-25T09:10:19.321Z,28.33
2022-08-25T09:12:55.132Z,28.43
2022-08-25T09:15:24.742Z,28.62
2022-08-25T09:18:15.022Z,28.77
2022-08-25T09:21:03.877Z,28.82
2022-08-25T09:23:58.739Z,28.83
2022-08-25T09:26:36.327Z,28.86
2022-08-25T09:29:16.823Z,28.93
2022-08-25T09:31:44.828Z,28.96
2022-08-25T09:34:20.408Z,29.06
2022-08-25T09:36:48.612Z,29.14
2022-08-25T09:39:15.502Z,29.24
2022-08-25T09:41:56.064Z,29.29
2022-08-25T09:44:31.717Z,29.30
2022-08-25T09:47:02.418Z,29.35
2022-08-25T09:49:35.510Z,29.30
2022-08-25T09:52:28.241Z,29.30
2022-08-25T09:54:56.779Z,29.39
2022-08-25T09:57:57.508Z,29.42
2022-08-25T10:00:34.818Z,29.41
2022-08-25T10:03:12.118Z,29.39
2022-08-25T10:05:58.798Z,29.41
2022-08-25T10:08:31.382Z,29.45
2022-08-25T10:10:59.878Z,29.52
2022-08-25T10:13:43.815Z,29.57
2022-08-25T10:16:30.843Z,29.50
2022-08-25T10:19:23.976Z,29.48
2022-08-25T10:22:10.861Z,29.49
2022-08-25T10:24:41.020Z,29.55
2022-08-25T10:27:13.537Z,29.55
2022-08-25T10:30:08.162Z,29.59
2022-08-25T10:33:02.469Z,29.67
2022-08-25T10:35:47.706Z,29.74
2022-08-25T10:38:38.577Z,29.60
2022-08-25T10:41:22.372Z,29.59
2022-08-25T10:44:03.881Z,29.64
2022-08-25T10:46:52.269Z,29.71
2022-08-25T10:49:47.622Z,29.73
2022-08-25T10:52:44.622Z,29.81
2022-08-25T10:55:48.689Z,29.78
2022-08-25T10:58:16.925Z,29.77
2022-08-25T11:01:03.652Z,29.79
2022-08-25T11:03:44.570Z,29.86
2022-08-25T11:06:18.942Z,29.90
2022-08-25T11:09:04.104Z,29.97
2022-08-25T11:11:40.615Z,29.99
2022-08-25T11:14:14.755Z,30.05
2022-08-25T11:16:48.432Z,30.10
2022-08-25T11:19:26.782Z,30.10
2022-08-25T11:22:19.369Z,30.10
2022-08-25T11:24:58.322Z,30.18
2022-08-25T11:27:34.951Z,30.27
2022-08-25T11:30:13.646Z,30.33
2022-08-25T11:32:44.466Z,30.36
2022-08-25T11:35:13.587Z,30.34
2022-08-25T11:38:17.345Z,30.37
2022-08-25T11:40:55.687Z,30.35
2022-08-25T11:43:29.357Z,30.32
2022-08-25T11:46:59.197Z,30.25
2022-08-25T11:49:52.715Z,30.23
2022-08-25T11:52:34.948Z,30.27
2022-08-25T11:55:29.893Z,30.33
2022-08-25T11:58:28.019Z,30.42
2022-08-25T12:01:02.319Z,30.43
2022-08-25T12:03:31.935Z,30.50
2022-08-25T12:06:18.712Z,30.59
2022-08-25T12:09:10.865Z,30.56
2022-08-25T12:11:58.058Z,30.48
2022-08-25T12:14:24.663Z,30.46
2022-08-25T12:16:54.952Z,30.56
2022-08-25T12:19:36.641Z,30.65
2022-08-25T12:22:04.535Z,30.68
2022-08-25T12:24:48.186Z,30.65
2022-08-25T12:27:37.119Z,30.78
2022-08-25T12:30:26.276Z,30.85
2022-08-25T12:33:06.496Z,31.02
2022-08-25T12:35:53.526Z,31.06
2022-08-25T12:38:47.285Z,31.18
2022-08-25T12:41:27.428Z,31.23
2022-08-25T12:44:32.196Z,31.28
2022-08-25T12:47:28.040Z,31.37
2022-08-25T12:50:32.712Z,31.40
2022-08-25T12:53:38.881Z,31.41
2022-08-25T12:56:43.131Z,31.51
2022-08-25T12:59:18.668Z,31.56
2022-08-25T13:02:11.678Z,31.53
2022-08-25T13:04:57.256Z,31.54
2022-08-25T13:07:42.069Z,31.64
2022-08-25T13:10:42.790Z,31.62
2022-08-25T13:13:24.451Z,31.52
2022-08-25T13:16:03.409Z,31.54
2022-08-25T13:18:34.303Z,31.53
2022-08-25T13:21:13.587Z,31.54
2022-08-25T13:23:42.911Z,31.57
2022-08-25T13:26:14.635Z,31.64
2022-08-25T13:28:42.170Z,31.69
2022-08-25T13:31:22.402Z,31.72
2022-08-25T13:33:57.630Z,31.70
2022-08-25T13:36:50.405Z,31.77
2022-08-25T13:39:45.204Z,32.08
2022-08-25T13:42:16.459Z,32.72
2022-08-25T13:44:52.020Z,32.94
2022-08-25T13:47:45.469Z,32.93
2022-08-25T13:50:31.203Z,32.72
2022-08-25T13:53:13.009Z,32.61
2022-08-25T13:55:50.975Z,32.44
2022-08-25T13:58:45.479Z,32.32
2022-08-25T14:01:22.994Z,32.24
2022-08-25T14:04:34.059Z,32.11
2022-08-25T14:07:34.318Z,32.04
2022-08-25T14:10:04.229Z,32.02
2022-08-25T14:12:34.886Z,32.04
2022-08-25T14:15:08.282Z,31.98
2022-08-25T14:17:39.333Z,31.95
2022-08-25T14:20:29.704Z,31.94
2022-08-25T14:23:03.335Z,31.90
2022-08-25T14:25:32.530Z,31.86
2022-08-25T14:28:07.193Z,31.79
2022-08-25T14:30:37.014Z,31.77
2022-08-25T14:33:05.141Z,31.73
2022-08-25T14:35:33.947Z,31.71
2022-08-25T14:38:10.709Z,31.76
2022-08-25T14:40:37.949Z,31.66
2022-08-25T14:43:04.569Z,31.67
2022-08-25T14:45:31.912Z,31.64
2022-08-25T14:48:10.182Z,31.58
2022-08-25T14:50:41.218Z,31.53
2022-08-25T14:53:11.040Z,31.51
2022-08-25T14:55:38.798Z,31.51
2022-08-25T14:58:06.812Z,31.46
2022-08-25T15:00:37.321Z,31.42
2022-08-25T15:03:04.075Z,31.44
2022-08-25T15:05:31.842Z,31.43
2022-08-25T15:08:17.034Z,31.41
2022-08-25T15:10:44.150Z,31.42
2022-08-25T15:13:10.897Z,31.41
2022-08-25T15:15:53.029Z,31.40
2022-08-25T15:18:20.714Z,31.41
2022-08-25T15:20:47.447Z,31.42
2022-08-25T15:23:17.650Z,31.44
2022-08-25T15:25:46.710Z,31.43
2022-08-25T15:28:17.359Z,31.49
2022-08-25T15:30:45.935Z,31.46
2022-08-25T15:33:14.019Z,31.42
2022-08-25T15:35:41.007Z,31.41
2022-08-25T15:38:08.134Z,31.42
2022-08-25T15:40:37.463Z,31.42
2022-08-25T15:43:04.117Z,31.43
2022-08-25T15:45:31.108Z,31.43
2022-08-25T15:47:57.997Z,31.41
2022-08-25T15:50:26.737Z,31.39
2022-08-25T15:52:53.536Z,31.37
2022-08-25T15:55:20.847Z,31.36
2022-08-25T15:57:49.494Z,31.36
2022-08-25T16:00:18.014Z,31.34
2022-08-25T16:02:45.466Z,31.36
2022-08-25T16:05:13.676Z,31.32
2022-08-25T16:07:42.909Z,31.26
2022-08-25T16:10:10.370Z,31.23
2022-08-25T16:12:37.581Z,31.24
2022-08-25T16:15:04.425Z,31.22
2022-08-25T16:17:30.994Z,31.18
2022-08-25T16:19:57.558Z,31.16
2022-08-25T16:22:24.215Z,31.19
2022-08-25T16:24:52.750Z,31.18
2022-08-25T16:27:19.901Z,31.33
2022-08-25T16:29:47.242Z,31.29
2022-08-25T16:32:14.664Z,31.16
2022-08-25T16:34:44.264Z,31.09
2022-08-25T16:37:11.209Z,31.03
2022-08-25T16:39:39.948Z,31.01
2022-08-25T16:42:07.977Z,30.97
2022-08-25T16:44:34.601Z,30.92
2022-08-25T16:47:01.429Z,30.89
2022-08-25T16:49:28.058Z,30.82
2022-08-25T16:51:57.424Z,30.80
2022-08-25T16:54:44.744Z,30.79
2022-08-25T16:57:11.523Z,30.79
2022-08-25T16:59:38.123Z,30.76
2022-08-25T17:02:06.466Z,30.66
2022-08-25T17:04:33.043Z,30.62
2022-08-25T17:06:59.861Z,30.58
2022-08-25T17:09:26.486Z,30.51
2022-08-25T17:11:56.673Z,30.49
2022-08-25T17:14:23.926Z,30.42
2022-08-25T17:16:54.533Z,30.37
2022-08-25T17:19:21.274Z,30.34
2022-08-25T17:21:50.271Z,30.27
2022-08-25T17:24:17.186Z,30.21
2022-08-25T17:26:46.330Z,30.15
2022-08-25T17:29:13.202Z,30.09
2022-08-25T17:31:40.299Z,29.96
2022-08-25T17:34:10.569Z,29.84
2022-08-25T17:36:38.522Z,29.78
2022-08-25T17:39:08.801Z,29.67
2022-08-25T17:41:37.736Z,29.58
2022-08-25T17:44:05.334Z,29.41
2022-08-25T17:46:32.444Z,29.38
2022-08-25T17:48:59.014Z,29.32
2022-08-25T17:51:25.670Z,29.21
2022-08-25T17:53:52.811Z,29.09
2022-08-25T17:56:22.291Z,28.98
2022-08-25T17:58:50.653Z,28.86
2022-08-25T18:01:20.495Z,28.83
2022-08-25T18:03:49.187Z,28.80
2022-08-25T18:06:16.375Z,28.71
2022-08-25T18:08:44.234Z,28.64
2022-08-25T18:11:11.524Z,28.62
2022-08-25T18:13:38.574Z,28.57
2022-08-25T18:16:05.868Z,28.53
2022-08-25T18:18:34.236Z,28.41
2022-08-25T18:21:01.690Z,28.32
2022-08-25T18:23:28.682Z,28.27
2022-08-25T18:26:01.074Z,28.13
2022-08-25T18:28:28.799Z,28.04
2022-08-25T18:30:56.283Z,28.03
2022-08-25T18:33:23.390Z,28.00
2022-08-25T18:35:49.906Z,27.93
2022-08-25T18:38:36.278Z,27.79
2022-08-25T18:41:06.656Z,27.77
2022-08-25T18:43:35.022Z,27.62
2022-08-25T18:46:04.753Z,27.51
2022-08-25T18:48:32.450Z,27.39
2022-08-25T18:51:00.705Z,27.31
2022-08-25T18:53:36.747Z,27.28
2022-08-25T18:56:04.767Z,27.09
2022-08-25T18:58:31.678Z,27.03
2022-08-25T19:00:58.236Z,26.94
2022-08-25T19:03:24.978Z,26.92
2022-08-25T19:05:57.300Z,26.82
2022-08-25T19:08:24.804Z,26.67
2022-08-25T19:10:53.504Z,26.60
2022-08-25T19:13:22.371Z,26.52
2022-08-25T19:15:51.311Z,26.45
2022-08-25T19:18:18.550Z,26.30
2022-08-25T19:20:45.400Z,26.24
2022-08-25T19:23:13.132Z,26.21
2022-08-25T19:25:41.542Z,26.13
2022-08-25T19:28:12.199Z,26.08
2022-08-25T19:30:39.331Z,25.98
2022-08-25T19:33:31.352Z,25.91
2022-08-25T19:36:06.288Z,25.89
2022-08-25T19:38:36.346Z,25.77
2022-08-25T19:41:10.627Z,25.64
2022-08-25T19:43:55.787Z,25.56
2022-08-25T19:46:26.130Z,25.57
2022-08-25T19:49:06.872Z,25.47
2022-08-25T19:51:34.693Z,25.31
2022-08-25T19:54:02.830Z,25.25
2022-08-25T19:56:30.082Z,25.24
2022-08-25T19:58:57.308Z,25.10
2022-08-25T20:01:24.296Z,24.97
2022-08-25T20:03:52.080Z,24.83
2022-08-25T20:06:19.134Z,24.82
2022-08-25T20:08:45.604Z,24.80
2022-08-25T20:11:12.182Z,24.63
2022-08-25T20:13:38.757Z,24.58
2022-08-25T20:16:05.679Z,24.55
2022-08-25T20:18:32.569Z,24.34
2022-08-25T20:20:59.333Z,24.28
2022-08-25T20:23:44.445Z,24.26
2022-08-25T20:26:10.991Z,24.29
2022-08-25T20:28:37.729Z,24.27
2022-08-25T20:31:04.280Z,24.34
2022-08-25T20:33:32.861Z,24.33
2022-08-25T20:35:59.473Z,24.32
2022-08-25T20:38:29.725Z,24.27
2022-08-25T20:40:56.245Z,24.24
2022-08-25T20:43:23.200Z,24.12
2022-08-25T20:45:49.834Z,24.04
2022-08-25T20:48:16.461Z,24.01
2022-08-25T20:50:42.932Z,24.00
2022-08-25T20:53:10.128Z,23.96
2022-08-25T20:55:43.808Z,23.93
2022-08-25T20:58:10.603Z,23.78
2022-08-25T21:00:37.082Z,23.83
2022-08-25T21:03:03.614Z,23.77
2022-08-25T21:05:30.193Z,23.61
2022-08-25T21:07:58.265Z,23.54
2022-08-25T21:10:24.842Z,23.45
2022-08-25T21:12:53.248Z,23.40
2022-08-25T21:15:20.462Z,23.32
2022-08-25T21:17:53.071Z,23.20
2022-08-25T21:20:25.245Z,23.20
2022-08-25T21:22:52.274Z,23.20
2022-08-25T21:25:21.226Z,23.19
2022-08-25T21:27:48.096Z,23.20
2022-08-25T21:30:16.162Z,23.18
2022-08-25T21:32:53.799Z,23.14
2022-08-25T21:35:22.519Z,23.13
2022-08-25T21:37:53.313Z,23.10
2022-08-25T21:40:21.435Z,23.13
2022-08-25T21:42:48.789Z,23.02
2022-08-25T21:45:15.503Z,22.95
2022-08-25T21:47:42.743Z,22.88
2022-08-25T21:50:12.081Z,22.76
2022-08-25T21:52:39.134Z,22.62
2022-08-25T21:55:08.071Z,22.50
2022-08-25T21:57:42.406Z,22.58
2022-08-25T22:00:12.408Z,22.59
2022-08-25T22:02:39.025Z,22.49
2022-08-25T22:05:09.362Z,22.51
2022-08-25T22:07:41.656Z,22.52
2022-08-25T22:10:16.702Z,22.40
2022-08-25T22:12:46.314Z,22.25
2022-08-25T22:15:14.527Z,22.18
2022-08-25T22:17:41.371Z,22.21
2022-08-25T22:20:08.905Z,22.09
2022-08-25T22:22:36.088Z,22.09
2022-08-25T22:25:03.657Z,22.05
2022-08-25T22:27:31.678Z,22.06
2022-08-25T22:29:58.473Z,21.96
2022-08-25T22:32:25.319Z,21.95
2022-08-25T22:34:51.903Z,21.96
2022-08-25T22:37:18.877Z,22.05
2022-08-25T22:39:46.020Z,22.05
2022-08-25T22:42:12.610Z,22.05
2022-08-25T22:44:40.338Z,22.09
2022-08-25T22:49:35.417Z,21.90
2022-08-25T22:52:02.813Z,21.88
2022-08-25T22:54:29.851Z,21.85
2022-08-25T22:56:56.471Z,21.82
2022-08-25T22:59:23.203Z,21.88
2022-08-25T23:01:52.640Z,21.88
2022-08-25T23:04:21.671Z,21.86
2022-08-25T23:06:49.273Z,21.87
2022-08-25T23:09:16.115Z,21.79
2022-08-25T23:11:43.360Z,21.77
2022-08-25T23:14:11.131Z,21.64
2022-08-25T23:16:42.839Z,21.54
2022-08-25T23:19:10.977Z,21.54
2022-08-25T23:21:59.345Z,21.54
2022-08-25T23:24:29.398Z,21.53
2022-08-25T23:26:58.767Z,21.52
2022-08-25T23:29:25.475Z,21.49
2022-08-25T23:31:52.120Z,21.38
2022-08-25T23:34:21.605Z,21.39
2022-08-25T23:36:48.870Z,21.34
2022-08-25T23:39:15.656Z,21.38
2022-08-25T23:41:42.281Z,21.43
2022-08-25T23:44:09.338Z,21.44
2022-08-25T23:46:39.330Z,21.41
2022-08-25T23:49:08.425Z,21.31
2022-08-25T23:51:38.039Z,21.24
2022-08-25T23:54:09.535Z,21.26
2022-08-25T23:56:42.257Z,21.27
2022-08-25T23:59:13.031Z,21.24
